Time;durP1;ratioP1;P1;durP2;ratioP2;P2;SDS_P1;SDS_P2;PMS_P1;PMS_P2;Temp;Humidity;BMP_temperature;BMP_pressure;BME280_temperature;BME280_humidity;BME280_pressure;Samples;Min_cycle;Max_cycle;Signal;HPM_P1;HPM_P2
2024/04/23 00:01:05;;;;;;;4.25;3.85;;;14.80;61.60;;;;;;4194291;27;20025;-37
2024/04/23 00:03:48;;;;;;;4.90;3.45;;;14.70;60.80;;;;;;4205049;27;20013;-37
2024/04/23 00:06:31;;;;;;;3.00;2.80;;;14.80;61.80;;;;;;4220723;27;20344;-37
2024/04/23 00:09:11;;;;;;;3.83;3.40;;;14.70;61.00;;;;;;4220591;27;20054;-37
2024/04/23 00:11:54;;;;;;;4.35;3.30;;;14.70;61.00;;;;;;4220124;27;20089;-37
2024/04/23 00:14:34;;;;;;;3.78;3.35;;;14.70;61.10;;;;;;4236570;27;20441;-37
2024/04/23 00:17:17;;;;;;;4.85;3.22;;;14.70;61.20;;;;;;4219391;27;20020;-37
2024/04/23 00:20:00;;;;;;;4.43;4.03;;;14.70;61.30;;;;;;4194106;27;20163;-37
2024/04/23 00:22:43;;;;;;;3.53;3.20;;;14.70;61.30;;;;;;4198207;27;20070;-38
2024/04/23 00:25:23;;;;;;;3.45;3.15;;;14.70;61.40;;;;;;4220314;27;20024;-37
2024/04/23 00:28:07;;;;;;;3.92;3.42;;;14.70;61.50;;;;;;4220538;27;20461;-37
2024/04/23 00:30:47;;;;;;;3.58;3.25;;;14.70;61.60;;;;;;4219926;27;20358;-38
2024/04/23 00:33:29;;;;;;;4.03;3.65;;;14.60;61.60;;;;;;4216741;27;20103;-37
2024/04/23 00:36:15;;;;;;;3.20;2.95;;;14.60;61.70;;;;;;4193687;27;20025;-37
2024/04/23 00:38:55;;;;;;;3.60;3.30;;;14.60;61.70;;;;;;4194066;27;20486;-37
2024/04/23 00:41:38;;;;;;;3.80;3.45;;;14.60;62.70;;;;;;4193736;27;20092;-37
2024/04/23 00:44:18;;;;;;;3.30;3.05;;;14.60;61.90;;;;;;4193508;27;20033;-36
2024/04/23 00:47:01;;;;;;;5.00;3.08;;;14.60;61.90;;;;;;4206960;27;20029;-37
2024/04/23 00:49:42;;;;;;;4.30;2.90;;;14.60;62.00;;;;;;4221459;27;20207;-37
2024/04/23 00:52:28;;;;;;;4.03;3.50;;;14.60;62.00;;;;;;4196560;27;20349;-37
2024/04/23 00:55:09;;;;;;;3.60;3.10;;;14.60;62.00;;;;;;4204724;27;20074;-37
2024/04/23 00:57:52;;;;;;;4.40;3.50;;;14.50;62.00;;;;;;4222157;27;20027;-37
2024/04/23 01:00:33;;;;;;;3.65;3.35;;;14.50;62.00;;;;;;4221990;27;20025;-37
2024/04/23 01:03:16;;;;;;;4.63;3.33;;;14.50;62.10;;;;;;4222255;27;20147;-38
2024/04/23 01:05:56;;;;;;;5.35;3.75;;;14.50;62.20;;;;;;4221524;27;20020;-37
2024/04/23 01:08:42;;;;;;;3.65;3.35;;;14.50;62.30;;;;;;4196241;27;20083;-37
2024/04/23 01:11:22;;;;;;;3.65;3.22;;;14.50;62.20;;;;;;4195957;27;20623;-38
2024/04/23 01:14:05;;;;;;;3.88;3.58;;;14.50;62.40;;;;;;4195932;27;20026;-37
2024/04/23 01:16:48;;;;;;;3.65;3.35;;;14.50;62.50;;;;;;4211921;27;20169;-37
2024/04/23 01:19:37;;;;;;;4.10;3.70;;;14.50;62.50;;;;;;4222428;27;20090;-37
2024/04/23 01:22:25;;;;;;;4.75;4.07;;;14.50;62.50;;;;;;4222853;27;20025;-36
2024/04/23 01:25:14;;;;;;;3.63;3.30;;;14.50;62.60;;;;;;4212688;27;20017;-37
2024/04/23 01:27:58;;;;;;;4.40;3.70;;;14.40;62.50;;;;;;4222029;27;20016;-49
2024/04/23 01:30:41;;;;;;;4.55;3.88;;;14.40;62.50;;;;;;4221669;27;20028;-48
2024/04/23 01:33:22;;;;;;;4.05;3.65;;;14.50;63.30;;;;;;4195721;27;20090;-48
2024/04/23 01:36:07;;;;;;;5.15;3.92;;;14.50;64.00;;;;;;4195624;27;20091;-47
2024/04/23 01:38:47;;;;;;;5.13;3.90;;;14.60;64.00;;;;;;4196280;27;20017;-48
2024/04/23 01:41:31;;;;;;;4.85;4.20;;;14.70;64.00;;;;;;4195939;27;20029;-48
2024/04/23 01:44:14;;;;;;;5.22;4.55;;;14.80;64.80;;;;;;4213060;27;20064;-47
2024/04/23 01:46:58;;;;;;;4.90;4.13;;;14.90;63.70;;;;;;4194954;27;20025;-48
2024/04/23 01:49:39;;;;;;;4.55;3.72;;;15.00;63.40;;;;;;4196142;27;20091;-52
2024/04/23 01:52:22;;;;;;;4.93;3.75;;;15.00;63.20;;;;;;4195658;27;20091;-51
2024/04/23 01:55:03;;;;;;;4.65;4.00;;;15.00;63.00;;;;;;4195289;27;20026;-49
2024/04/23 01:57:46;;;;;;;;;;;15.00;63.90;;;;;;4212743;27;20025;-47
2024/04/23 02:00:30;;;;;;;5.63;3.88;;;15.00;63.00;;;;;;4195678;27;19937;-49
2024/04/23 02:03:17;;;;;;;4.70;4.18;;;15.00;63.30;;;;;;4213355;27;20020;-47
2024/04/23 02:05:59;;;;;;;4.40;4.00;;;15.10;63.50;;;;;;4195096;27;20079;-47
2024/04/23 02:08:42;;;;;;;4.28;3.90;;;15.10;63.40;;;;;;4195159;27;20026;-49
2024/04/23 02:11:22;;;;;;;3.80;3.50;;;15.10;63.10;;;;;;4195802;27;20021;-38
2024/04/23 02:14:05;;;;;;;4.40;4.07;;;15.20;63.10;;;;;;4220028;27;20025;-37
2024/04/23 02:16:48;;;;;;;5.15;4.13;;;15.20;62.90;;;;;;4221543;27;20021;-37
2024/04/23 02:19:31;;;;;;;4.93;4.32;;;15.30;63.00;;;;;;4220329;27;20016;-37
2024/04/23 02:22:11;;;;;;;4.82;4.43;;;15.30;63.00;;;;;;4195852;27;20365;-38
2024/04/23 02:24:54;;;;;;;5.93;4.00;;;15.40;62.70;;;;;;4195341;27;20025;-38
2024/04/23 02:27:34;;;;;;;4.60;4.20;;;15.50;62.60;;;;;;4195202;27;20021;-37
2024/04/23 02:30:17;;;;;;;4.63;3.95;;;15.50;62.40;;;;;;4221332;27;20032;-37
2024/04/23 02:33:00;;;;;;;4.53;4.13;;;15.50;62.20;;;;;;4221776;27;20024;-37
2024/04/23 02:35:43;;;;;;;5.85;4.22;;;15.40;62.20;;;;;;4236333;27;20086;-38
2024/04/23 02:38:23;;;;;;;4.15;3.75;;;15.40;62.20;;;;;;4195672;27;20094;-48
2024/04/23 02:41:06;;;;;;;4.43;3.90;;;15.40;62.30;;;;;;4195112;27;20025;-48
2024/04/23 02:43:46;;;;;;;4.35;4.00;;;15.50;62.30;;;;;;4194922;27;20021;-47
2024/04/23 02:46:28;;;;;;;5.63;4.40;;;15.50;62.30;;;;;;4215943;27;20023;-48
2024/04/23 02:49:11;;;;;;;5.82;4.32;;;15.50;62.50;;;;;;4220235;27;20093;-48
2024/04/23 02:51:56;;;;;;;4.40;4.00;;;15.50;62.60;;;;;;4220443;27;20020;-49
2024/04/23 02:54:36;;;;;;;5.68;4.18;;;15.50;62.50;;;;;;4194867;27;20022;-49
2024/04/23 02:57:18;;;;;;;4.60;4.10;;;15.50;62.40;;;;;;4195286;27;20029;-49
2024/04/23 02:59:58;;;;;;;5.32;4.82;;;15.50;62.20;;;;;;4194620;27;20347;-49
2024/04/23 03:02:41;;;;;;;5.63;4.65;;;15.50;62.20;;;;;;4209789;27;20016;-51
2024/04/23 03:05:27;;;;;;;4.53;4.13;;;15.60;62.20;;;;;;4210287;27;20020;-38
2024/04/23 03:08:07;;;;;;;4.35;3.95;;;15.50;62.10;;;;;;4194207;27;20021;-38
2024/04/23 03:10:50;;;;;;;4.80;4.40;;;15.50;63.10;;;;;;4194308;27;20362;-38
2024/04/23 03:13:30;;;;;;;5.22;4.70;;;15.50;62.20;;;;;;4194987;27;20484;-37
2024/04/23 03:16:13;;;;;;;4.53;4.13;;;15.50;62.40;;;;;;4210869;27;20025;-38
2024/04/23 03:18:53;;;;;;;4.95;4.47;;;15.50;62.30;;;;;;4210578;27;20086;-37
2024/04/23 03:21:53;;;;;;;4.70;4.20;;;15.50;62.40;;;;;;4210158;27;20354;-38
2024/04/23 03:24:34;;;;;;;3.78;3.47;;;15.40;62.30;;;;;;4194486;27;20334;-37
2024/04/23 03:27:17;;;;;;;3.58;3.22;;;15.40;62.70;;;;;;4194170;27;20082;-37
2024/04/23 03:29:57;;;;;;;3.00;2.80;;;15.40;62.90;;;;;;4194894;27;20021;-37
2024/04/23 03:32:40;;;;;;;2.85;2.65;;;15.40;63.00;;;;;;4194491;27;20573;-48
2024/04/23 03:35:20;;;;;;;3.83;3.53;;;15.40;62.90;;;;;;4208871;27;20082;-47
2024/04/23 03:38:05;;;;;;;3.40;3.10;;;15.40;62.80;;;;;;4200077;27;20021;-48
2024/04/23 03:40:48;;;;;;;4.40;3.70;;;15.40;62.70;;;;;;4194597;27;20047;-47
2024/04/23 03:43:31;;;;;;;4.15;3.58;;;15.30;62.70;;;;;;4211243;27;20091;-37
2024/04/23 03:46:14;;;;;;;4.82;4.20;;;15.30;62.80;;;;;;4194551;27;20021;-37
2024/04/23 03:48:57;;;;;;;5.05;4.07;;;15.30;62.90;;;;;;4194347;27;20351;-37
2024/04/23 03:51:37;;;;;;;4.43;4.03;;;15.30;62.80;;;;;;4208962;27;20024;-38
2024/04/23 03:54:22;;;;;;;3.92;3.53;;;15.30;62.80;;;;;;4199771;27;20021;-37
2024/04/23 03:57:03;;;;;;;6.05;3.90;;;15.30;63.00;;;;;;4193839;27;20054;-38
2024/04/23 03:59:45;;;;;;;3.85;3.55;;;15.30;63.30;;;;;;4194137;27;20025;-38
2024/04/23 04:08:26;;;;;;;4.20;3.72;;;15.40;63.10;;;;;;4214132;27;20021;-37
2024/04/23 04:11:11;;;;;;;5.10;3.90;;;15.40;63.10;;;;;;4194494;27;20029;-38
2024/04/23 04:13:54;;;;;;;4.18;3.83;;;15.50;62.90;;;;;;4194344;27;20458;-38
2024/04/23 04:16:36;;;;;;;5.93;4.03;;;15.50;63.60;;;;;;4193632;27;20487;-37
2024/04/23 04:19:17;;;;;;;4.45;4.05;;;15.50;62.90;;;;;;4193764;27;20091;-37
2024/04/23 04:22:00;;;;;;;5.38;4.63;;;15.50;62.90;;;;;;4196210;27;20098;-37
2024/04/23 04:24:40;;;;;;;5.15;4.10;;;15.50;62.80;;;;;;4211272;27;20402;-37
2024/04/23 04:27:25;;;;;;;4.10;3.70;;;15.50;62.80;;;;;;4222422;27;20024;-37
2024/04/23 04:30:07;;;;;;;3.97;3.67;;;15.50;62.90;;;;;;4239167;27;20086;-37
2024/04/23 04:32:50;;;;;;;4.28;3.88;;;15.60;63.00;;;;;;4222139;27;20033;-37
2024/04/23 04:35:30;;;;;;;3.75;3.45;;;15.60;62.80;;;;;;4222502;27;20024;-37
2024/04/23 04:38:13;;;;;;;4.72;3.95;;;15.60;62.50;;;;;;4221818;27;20468;-38
2024/04/23 04:40:56;;;;;;;4.45;4.07;;;15.70;62.60;;;;;;4221936;27;20086;-38
2024/04/23 04:43:39;;;;;;;4.72;4.30;;;15.70;62.60;;;;;;4238739;27;20456;-37
2024/04/23 04:46:21;;;;;;;5.05;4.55;;;15.70;62.50;;;;;;4219180;27;20020;-37
2024/04/23 04:49:02;;;;;;;5.97;4.43;;;15.80;62.20;;;;;;4222104;27;20833;-37
2024/04/23 04:51:44;;;;;;;7.05;4.28;;;15.80;62.50;;;;;;4222282;27;20087;-37
2024/04/23 04:54:25;;;;;;;5.28;4.47;;;15.80;62.10;;;;;;4209476;27;20445;-38
2024/04/23 04:57:08;;;;;;;5.45;4.07;;;15.90;62.00;;;;;;4208320;27;20025;-37
2024/04/23 04:59:51;;;;;;;4.78;4.38;;;15.90;61.80;;;;;;4222350;27;20143;-37
2024/04/23 05:02:34;;;;;;;4.57;4.18;;;15.90;61.60;;;;;;4213166;27;20531;-37
2024/04/23 05:05:14;;;;;;;4.57;4.18;;;15.90;61.70;;;;;;4196529;27;20441;-37
2024/04/23 05:07:56;;;;;;;4.32;3.92;;;16.00;61.70;;;;;;4195966;27;20033;-37
2024/04/23 05:10:38;;;;;;;4.88;3.95;;;16.00;61.80;;;;;;4221854;27;20020;-37
2024/04/23 05:13:21;;;;;;;6.20;3.92;;;16.10;62.00;;;;;;4221537;27;20024;-37
2024/04/23 05:16:04;;;;;;;6.97;4.45;;;16.10;61.70;;;;;;4220508;27;20024;-37
2024/04/23 05:18:47;;;;;;;5.53;4.85;;;16.10;61.90;;;;;;4221846;27;20040;-38
2024/04/23 05:21:27;;;;;;;7.75;5.32;;;16.10;62.70;;;;;;4221699;27;20060;-37
2024/04/23 05:24:10;;;;;;;5.20;4.60;;;16.20;61.70;;;;;;4220797;27;20341;-37
2024/04/23 05:26:50;;;;;;;4.75;4.35;;;16.20;61.60;;;;;;4221880;27;20024;-37
2024/04/23 05:29:33;;;;;;;5.28;4.78;;;16.20;61.50;;;;;;4220759;27;20027;-37
2024/04/23 05:35:17;;;;;;;5.90;5.28;;;16.20;61.40;;;;;;4194677;27;20088;-37
2024/04/23 05:38:00;;;;;;;6.45;5.03;;;16.10;61.50;;;;;;4193056;27;20107;-37
2024/04/23 05:40:43;;;;;;;8.05;4.55;;;16.20;61.50;;;;;;4196145;27;20050;-37
2024/04/23 05:43:26;;;;;;;6.30;4.60;;;16.10;62.20;;;;;;4221417;27;20021;-37
2024/04/23 05:46:08;;;;;;;5.55;5.03;;;16.00;61.30;;;;;;4218755;27;20021;-37
2024/04/23 05:49:29;;;;;;;5.95;5.35;;;15.90;61.40;;;;;;4195362;27;20083;-37
2024/04/23 05:53:07;;;;;;;5.30;4.80;;;15.90;61.10;;;;;;4194595;27;20087;-38
2024/04/23 05:56:11;;;;;;;6.78;4.88;;;15.70;61.70;;;;;;4195163;27;20021;-37
2024/04/23 05:58:52;;;;;;;7.25;4.68;;;15.60;62.30;;;;;;4204586;27;20082;-37
2024/04/23 06:01:34;;;;;;;6.38;4.47;;;15.60;62.50;;;;;;4221171;27;20021;-37
2024/04/23 06:04:18;;;;;;;8.85;5.40;;;15.50;62.50;;;;;;4195321;27;20461;-36
2024/04/23 06:07:00;;;;;;;5.90;4.95;;;15.50;62.70;;;;;;4195667;27;20068;-37
2024/04/23 06:09:43;;;;;;;5.95;4.43;;;15.40;62.90;;;;;;4212220;27;20017;-37
2024/04/23 06:12:26;;;;;;;6.72;4.85;;;15.30;63.00;;;;;;4195067;27;20025;-37
2024/04/23 06:15:09;;;;;;;7.32;5.30;;;15.30;63.10;;;;;;4202609;27;20337;-38
2024/04/23 06:17:50;;;;;;;5.03;4.57;;;15.30;63.10;;;;;;4221285;27;20028;-37
2024/04/23 06:20:33;;;;;;;5.30;4.80;;;15.20;62.90;;;;;;4217363;27;20046;-37
2024/04/23 06:23:19;;;;;;;7.45;6.75;;;15.20;63.10;;;;;;4221524;27;20024;-37
2024/04/23 06:26:01;;;;;;;8.32;5.35;;;15.10;62.90;;;;;;4221448;27;20464;-37
2024/04/23 06:28:44;;;;;;;6.28;5.25;;;15.10;63.10;;;;;;4221685;27;20903;-37
2024/04/23 06:31:30;;;;;;;6.55;4.90;;;15.10;63.20;;;;;;4220659;27;20024;-37
2024/04/23 06:34:11;;;;;;;4.43;4.10;;;15.00;63.10;;;;;;4214393;27;20098;-37
2024/04/23 06:36:54;;;;;;;7.07;4.97;;;15.00;63.00;;;;;;4214241;27;20635;-37
2024/04/23 06:39:35;;;;;;;5.85;4.68;;;15.00;63.00;;;;;;4217178;27;20017;-37
2024/04/23 06:42:18;;;;;;;5.95;4.32;;;14.90;63.00;;;;;;4219895;27;20097;-37
2024/04/23 06:45:01;;;;;;;5.80;5.22;;;14.90;62.90;;;;;;4220546;27;20016;-37
2024/04/23 06:47:45;;;;;;;5.20;4.70;;;14.90;62.80;;;;;;4219842;27;20101;-37
2024/04/23 06:50:26;;;;;;;7.60;5.25;;;14.80;62.80;;;;;;4220837;27;20024;-37
2024/04/23 06:53:08;;;;;;;5.97;5.30;;;14.80;62.60;;;;;;4221414;27;20099;-37
2024/04/23 06:55:49;;;;;;;5.65;5.00;;;14.70;62.50;;;;;;4221863;27;20090;-37
2024/04/23 06:58:32;;;;;;;7.00;5.35;;;14.70;62.50;;;;;;4220924;27;20020;-37
2024/04/23 07:01:14;;;;;;;8.82;5.07;;;14.60;62.60;;;;;;4220564;27;20021;-46
2024/04/23 07:03:58;;;;;;;7.28;4.70;;;14.60;62.60;;;;;;4220325;27;20469;-47
2024/04/23 07:06:38;;;;;;;5.20;4.70;;;14.60;63.00;;;;;;4220147;27;20028;-46
2024/04/23 07:09:21;;;;;;;7.93;4.78;;;14.50;63.20;;;;;;4218113;27;20063;-46
2024/04/23 07:12:04;;;;;;;6.05;5.05;;;14.50;63.60;;;;;;4219076;27;20016;-48
2024/04/23 07:14:44;;;;;;;5.32;4.82;;;14.50;63.80;;;;;;4220226;27;20016;-50
2024/04/23 07:17:29;;;;;;;6.35;5.07;;;14.50;63.70;;;;;;4219985;27;20017;-48
2024/04/23 07:20:10;;;;;;;5.10;4.60;;;14.50;63.60;;;;;;4194337;27;20087;-48
2024/04/23 07:22:52;;;;;;;5.68;4.50;;;14.40;63.90;;;;;;4194883;27;20025;-48
2024/04/23 07:25:33;;;;;;;5.10;4.60;;;14.50;63.90;;;;;;4213530;27;20024;-48
2024/04/23 07:28:16;;;;;;;8.63;5.32;;;14.40;64.10;;;;;;4220181;27;20094;-37
2024/04/23 07:30:58;;;;;;;5.90;5.22;;;14.50;64.40;;;;;;4220333;27;20103;-37
2024/04/23 07:33:44;;;;;;;5.60;4.05;;;14.40;64.40;;;;;;4218592;27;20092;-37
2024/04/23 07:36:28;;;;;;;6.18;5.57;;;14.50;64.60;;;;;;4218869;27;20017;-37
2024/04/23 07:39:08;;;;;;;7.78;4.93;;;14.50;64.60;;;;;;4208104;27;20068;-37
2024/04/23 07:41:51;;;;;;;5.65;5.05;;;14.50;64.50;;;;;;4220070;27;20025;-37
2024/04/23 07:44:35;;;;;;;7.93;4.72;;;14.50;64.20;;;;;;4219158;27;20021;-36
2024/04/23 07:47:17;;;;;;;4.13;3.72;;;14.60;65.20;;;;;;4220302;27;20081;-37
2024/04/23 07:50:03;;;;;;;3.80;3.50;;;14.60;64.30;;;;;;4202064;27;20087;-38
2024/04/23 07:52:46;;;;;;;4.18;3.47;;;14.60;63.20;;;;;;4193988;27;20058;-37
2024/04/23 07:55:26;;;;;;;2.70;2.50;;;14.60;62.30;;;;;;4206540;27;20059;-38
2024/04/23 07:58:09;;;;;;;7.00;3.47;;;14.70;61.30;;;;;;4219765;27;20046;-37
2024/04/23 08:00:49;;;;;;;4.07;3.55;;;14.70;60.70;;;;;;4220382;27;20089;-37
2024/04/23 08:03:34;;;;;;;4.25;3.85;;;14.70;60.70;;;;;;4217465;27;20054;-37
2024/04/23 08:06:17;;;;;;;3.63;3.30;;;14.70;60.60;;;;;;4220492;27;20065;-37
2024/04/23 08:09:00;;;;;;;3.75;3.45;;;14.70;60.30;;;;;;4220171;27;20089;-36
2024/04/23 08:11:41;;;;;;;4.85;3.25;;;14.70;60.00;;;;;;4220193;27;20025;-37
2024/04/23 08:14:24;;;;;;;4.30;2.97;;;14.80;59.60;;;;;;4220403;27;20024;-37
2024/04/23 08:17:04;;;;;;;3.53;2.97;;;14.80;59.50;;;;;;4218964;27;20016;-37
2024/04/23 08:19:47;;;;;;;3.72;2.97;;;14.80;59.10;;;;;;4219893;27;20024;-48
2024/04/23 08:22:29;;;;;;;3.28;2.80;;;14.80;58.40;;;;;;4216625;27;20066;-47
2024/04/23 08:25:16;;;;;;;2.60;2.50;;;14.80;58.10;;;;;;4220044;27;20020;-47
2024/04/23 08:27:56;;;;;;;2.60;2.40;;;14.80;57.80;;;;;;4219753;27;20050;-47
2024/04/23 08:30:39;;;;;;;3.45;2.92;;;14.80;56.20;;;;;;4219506;27;20050;-47
2024/04/23 08:33:22;;;;;;;2.83;2.63;;;14.90;55.50;;;;;;4219114;27;20017;-48
2024/04/23 08:36:02;;;;;;;2.63;2.45;;;14.90;55.30;;;;;;4219488;27;20530;-46
2024/04/23 08:38:47;;;;;;;3.88;2.78;;;14.90;56.30;;;;;;4220099;27;20364;-46
2024/04/23 08:41:30;;;;;;;2.90;2.70;;;15.00;56.70;;;;;;4219393;27;20078;-47
2024/04/23 08:44:14;;;;;;;3.95;2.75;;;15.00;55.70;;;;;;4194110;27;20025;-46
2024/04/23 08:46:55;;;;;;;4.03;2.90;;;15.00;55.60;;;;;;4219717;27;20021;-50
2024/04/23 08:49:39;;;;;;;5.07;2.70;;;15.00;54.80;;;;;;4217159;27;20021;-45
2024/04/23 08:52:21;;;;;;;3.13;2.33;;;15.00;54.40;;;;;;4219785;27;20024;-37
2024/04/23 08:55:08;;;;;;;2.88;2.40;;;15.00;54.10;;;;;;4219705;27;20021;-36
2024/04/23 08:57:51;;;;;;;2.70;2.50;;;15.00;53.70;;;;;;4219362;27;20362;-38
2024/04/23 09:00:32;;;;;;;4.70;2.53;;;15.00;53.50;;;;;;4193323;27;20018;-37
2024/04/23 09:03:21;;;;;;;2.58;2.20;;;15.10;53.70;;;;;;4211289;27;20018;-37
2024/04/23 09:06:01;;;;;;;3.17;2.50;;;15.10;53.70;;;;;;4193916;27;20087;-35
2024/04/23 09:08:44;;;;;;;3.10;2.35;;;15.10;53.30;;;;;;4196212;27;20086;-35
2024/04/23 09:11:31;;;;;;;3.40;2.30;;;15.10;52.80;;;;;;4196133;27;20411;-35
2024/04/23 09:14:14;;;;;;;2.40;2.17;;;15.20;52.30;;;;;;4196382;27;20197;-35
2024/04/23 09:16:56;;;;;;;2.75;2.20;;;15.20;51.60;;;;;;4195843;27;20091;-35
2024/04/23 09:19:39;;;;;;;3.03;2.70;;;15.20;50.90;;;;;;4202481;27;20082;-35
2024/04/23 09:22:19;;;;;;;4.13;2.58;;;15.20;50.40;;;;;;4195848;27;20150;-36
2024/04/23 09:25:03;;;;;;;2.58;2.33;;;15.20;50.60;;;;;;4218405;27;20082;-35
2024/04/23 09:27:47;;;;;;;2.33;1.88;;;15.30;49.70;;;;;;4221815;27;20456;-35
2024/04/23 09:30:30;;;;;;;3.45;2.78;;;15.30;49.50;;;;;;4228917;27;20020;-35
2024/04/23 09:33:13;;;;;;;3.30;2.55;;;15.30;49.10;;;;;;4221510;27;20083;-35
2024/04/23 09:36:01;;;;;;;2.92;2.60;;;15.30;48.70;;;;;;4195037;27;20054;-35
2024/04/23 09:38:46;;;;;;;3.55;2.80;;;15.30;48.40;;;;;;4207561;27;20020;-35
2024/04/23 09:41:26;;;;;;;2.67;2.55;;;15.30;48.20;;;;;;4198753;27;20022;-36
2024/04/23 09:44:12;;;;;;;4.70;2.50;;;15.30;48.20;;;;;;4200629;27;20063;-36
2024/04/23 09:46:53;;;;;;;2.92;2.72;;;15.30;48.30;;;;;;4221332;27;20024;-36
2024/04/23 09:49:36;;;;;;;2.80;2.60;;;15.40;48.20;;;;;;4221298;27;20020;-36
2024/04/23 09:52:28;;;;;;;2.60;2.38;;;15.40;48.50;;;;;;4195241;27;20025;-36
2024/04/23 09:55:12;;;;;;;3.13;2.83;;;15.40;48.80;;;;;;4194157;27;20060;-37
2024/04/23 09:57:52;;;;;;;3.55;2.30;;;15.40;48.80;;;;;;4201236;27;20369;-37
2024/04/23 10:00:38;;;;;;;2.58;2.38;;;15.40;48.90;;;;;;4221526;27;20050;-36
2024/04/23 10:03:23;;;;;;;3.63;2.60;;;15.40;48.60;;;;;;4221334;27;20017;-36
2024/04/23 10:06:06;;;;;;;3.13;2.63;;;15.40;48.60;;;;;;4215418;27;20085;-36
2024/04/23 10:08:54;;;;;;;3.15;2.67;;;15.40;48.80;;;;;;4195041;27;20024;-36
2024/04/23 10:11:38;;;;;;;5.57;2.78;;;15.40;48.30;;;;;;4195091;27;20091;-36
2024/04/23 10:14:25;;;;;;;2.40;2.20;;;15.30;48.50;;;;;;4195454;27;20025;-36
2024/04/23 10:17:11;;;;;;;2.63;2.40;;;15.30;48.70;;;;;;4195257;27;20092;-36
2024/04/23 10:19:57;;;;;;;3.15;2.20;;;15.30;48.40;;;;;;4223451;27;20481;-36
2024/04/23 10:22:38;;;;;;;2.58;2.38;;;15.20;48.70;;;;;;4206853;27;20054;-36
2024/04/23 10:25:22;;;;;;;3.10;2.90;;;15.20;48.90;;;;;;4217674;27;20514;-35
2024/04/23 10:28:03;;;;;;;2.88;2.67;;;15.20;48.90;;;;;;4238745;27;20017;-37
2024/04/23 10:30:47;;;;;;;2.92;2.55;;;15.10;48.60;;;;;;4195204;27;20090;-36
2024/04/23 10:33:33;;;;;;;3.25;2.67;;;15.10;48.50;;;;;;4212005;27;20089;-36
2024/04/23 10:36:14;;;;;;;2.72;2.50;;;15.10;49.10;;;;;;4195282;27;20099;-36
2024/04/23 10:39:01;;;;;;;4.88;2.55;;;15.10;49.40;;;;;;4212048;27;20016;-37
2024/04/23 10:41:41;;;;;;;3.63;2.38;;;15.10;49.20;;;;;;4221273;27;20021;-36
2024/04/23 10:44:25;;;;;;;3.97;2.33;;;15.10;48.80;;;;;;4221481;27;20021;-36
2024/04/23 10:47:05;;;;;;;2.65;2.45;;;15.10;48.20;;;;;;4193605;27;20086;-35
2024/04/23 10:49:55;;;;;;;3.28;1.63;;;15.20;48.30;;;;;;4215325;27;20483;-36
2024/04/23 10:52:35;;;;;;;4.75;2.08;;;15.20;47.70;;;;;;4221183;27;20038;-35
2024/04/23 10:55:21;;;;;;;3.35;2.20;;;15.20;47.30;;;;;;4220741;27;20020;-36
2024/04/23 10:58:04;;;;;;;3.13;2.10;;;15.20;47.60;;;;;;4221076;27;20017;-36
2024/04/23 11:00:45;;;;;;;2.28;2.00;;;15.20;47.80;;;;;;4220793;27;20456;-36
2024/04/23 11:03:30;;;;;;;2.67;2.43;;;15.20;47.70;;;;;;4220281;27;20102;-36
2024/04/23 11:06:22;;;;;;;2.10;2.00;;;15.20;47.80;;;;;;4204998;27;20263;-38
2024/04/23 11:09:17;;;;;;;3.33;2.08;;;15.20;48.30;;;;;;4244722;27;20378;-36
2024/04/23 11:11:57;;;;;;;2.40;2.20;;;15.20;49.10;;;;;;4194165;27;20450;-37
2024/04/23 11:14:40;;;;;;;2.42;2.30;;;15.20;49.70;;;;;;4214123;27;20139;-37
2024/04/23 11:17:21;;;;;;;4.10;2.10;;;15.30;49.30;;;;;;4236892;27;20059;-38
2024/04/23 11:20:03;;;;;;;1.73;1.63;;;15.30;49.00;;;;;;4195000;27;20029;-37
2024/04/23 11:22:53;;;;;;;3.25;2.20;;;15.40;48.90;;;;;;4211581;27;20026;-38
2024/04/23 11:25:37;;;;;;;2.47;1.83;;;15.40;48.80;;;;;;4228145;27;20050;-37
2024/04/23 11:28:20;;;;;;;3.85;1.98;;;15.50;48.50;;;;;;4220441;27;20054;-37
2024/04/23 11:31:00;;;;;;;1.95;1.80;;;15.50;48.10;;;;;;4223300;27;20023;-38
2024/04/23 11:33:44;;;;;;;2.53;2.30;;;15.60;48.00;;;;;;4194464;27;20025;-44
2024/04/23 11:36:27;;;;;;;2.03;1.83;;;15.60;48.10;;;;;;4205405;27;20069;-37
2024/04/23 11:39:10;;;;;;;2.63;2.42;;;15.70;47.60;;;;;;4192774;27;20029;-36
2024/04/23 11:41:55;;;;;;;1.83;1.73;;;15.70;46.90;;;;;;4194060;27;20025;-36
2024/04/23 11:44:35;;;;;;;2.10;1.90;;;15.80;46.40;;;;;;4202000;27;20025;-36
2024/04/23 11:47:18;;;;;;;2.42;2.10;;;15.80;46.80;;;;;;4220691;27;20024;-37
2024/04/23 11:50:02;;;;;;;2.88;2.30;;;15.80;46.90;;;;;;4220369;27;20024;-36
2024/04/23 11:52:45;;;;;;;2.00;1.90;;;15.90;46.50;;;;;;4253478;27;20054;-39
2024/04/23 11:55:28;;;;;;;2.70;2.50;;;16.00;45.20;;;;;;4220342;27;20326;-47
2024/04/23 11:58:11;;;;;;;2.42;1.95;;;16.00;45.10;;;;;;4220177;27;20346;-38
2024/04/23 12:00:52;;;;;;;2.78;2.10;;;16.00;46.20;;;;;;4219240;27;20310;-39
2024/04/23 12:03:35;;;;;;;2.10;2.00;;;16.10;46.90;;;;;;4220101;27;20016;-39
2024/04/23 12:06:15;;;;;;;2.75;2.30;;;16.10;46.70;;;;;;4219535;27;20024;-39
2024/04/23 12:08:58;;;;;;;5.47;3.63;;;16.10;46.50;;;;;;4236759;27;20057;-39
2024/04/23 12:11:45;;;;;;;2.00;1.90;;;16.10;46.40;;;;;;4220096;27;20090;-39
2024/04/23 12:14:28;;;;;;;1.73;1.63;;;16.20;46.00;;;;;;4219432;27;20029;-38
2024/04/23 12:17:08;;;;;;;2.78;1.98;;;16.20;45.90;;;;;;4227178;27;20106;-48
2024/04/23 12:19:52;;;;;;;2.75;2.13;;;16.20;45.70;;;;;;4219923;27;20029;-50
2024/04/23 12:22:33;;;;;;;2.38;1.80;;;16.20;45.00;;;;;;4219908;27;20024;-52
2024/04/23 12:25:17;;;;;;;2.42;2.10;;;16.20;45.10;;;;;;4220182;27;20531;-51
2024/04/23 12:28:00;;;;;;;2.08;1.88;;;16.30;45.50;;;;;;4215811;27;20016;-49
2024/04/23 12:30:43;;;;;;;2.25;2.10;;;16.30;45.60;;;;;;4219521;27;20021;-52
2024/04/23 12:33:27;;;;;;;2.05;1.95;;;16.30;45.40;;;;;;4217702;27;20037;-53
2024/04/23 12:36:11;;;;;;;2.10;1.55;;;16.40;45.30;;;;;;4220166;27;20020;-53
2024/04/23 12:38:51;;;;;;;2.25;1.67;;;16.40;45.20;;;;;;4218664;27;20028;-54
2024/04/23 12:41:34;;;;;;;1.88;1.70;;;16.40;44.70;;;;;;4217048;27;20086;-48
2024/04/23 12:44:19;;;;;;;1.95;1.85;;;16.40;44.60;;;;;;4222135;27;20502;-47
2024/04/23 12:47:02;;;;;;;2.92;2.00;;;16.60;60.30;;;;;;4214573;27;20467;-48
2024/04/23 12:49:42;;;;;;;1.65;1.55;;;16.60;58.80;;;;;;4214219;27;20021;-49
2024/04/23 12:52:24;;;;;;;1.63;1.10;;;16.60;58.50;;;;;;4216350;27;20059;-49
2024/04/23 12:55:05;;;;;;;1.60;1.50;;;16.70;57.90;;;;;;4222344;27;20056;-36
2024/04/23 12:57:48;;;;;;;2.40;1.58;;;16.70;57.00;;;;;;4215955;27;20017;-36
2024/04/23 13:00:31;;;;;;;1.50;1.15;;;16.70;56.30;;;;;;4220932;27;20025;-39
2024/04/23 13:03:14;;;;;;;1.98;1.85;;;16.70;55.40;;;;;;4218382;27;20028;-36
2024/04/23 13:05:54;;;;;;;3.25;1.95;;;16.60;54.60;;;;;;4217108;27;20050;-37
2024/04/23 13:08:37;;;;;;;2.55;1.58;;;16.60;55.40;;;;;;4218587;27;20020;-39
2024/04/23 13:11:21;;;;;;;2.75;1.58;;;16.60;54.80;;;;;;4218560;27;20380;-38
2024/04/23 13:14:01;;;;;;;1.73;1.50;;;16.60;54.40;;;;;;4222882;27;20365;-38
2024/04/23 13:16:46;;;;;;;5.88;1.50;;;16.50;54.40;;;;;;4217829;27;20025;-37
2024/04/23 13:19:30;;;;;;;2.42;1.70;;;16.50;54.30;;;;;;4216576;27;20059;-37
2024/04/23 13:22:10;;;;;;;1.85;1.60;;;16.50;54.20;;;;;;4194976;27;20535;-38
2024/04/23 13:24:54;;;;;;;3.00;1.50;;;16.40;54.00;;;;;;4217949;27;20017;-37
2024/04/23 13:27:34;;;;;;;1.73;1.63;;;16.40;53.90;;;;;;4206982;27;20497;-37
2024/04/23 13:30:16;;;;;;;1.42;1.38;;;16.40;53.30;;;;;;4219242;27;20338;-37
2024/04/23 13:32:59;;;;;;;4.13;1.70;;;16.40;53.90;;;;;;4218063;27;20735;-38
2024/04/23 13:35:42;;;;;;;1.67;1.58;;;16.40;54.10;;;;;;4218825;27;20050;-37
2024/04/23 13:38:25;;;;;;;1.27;1.27;;;16.30;54.20;;;;;;4218061;27;20020;-37
2024/04/23 13:41:05;;;;;;;1.50;1.40;;;16.30;54.20;;;;;;4201497;27;20082;-37
2024/04/23 13:43:48;;;;;;;2.03;1.90;;;16.30;54.00;;;;;;4203946;27;20020;-37
2024/04/23 13:46:29;;;;;;;2.05;1.95;;;16.20;54.30;;;;;;4201550;27;20025;-37
2024/04/23 13:49:14;;;;;;;1.75;1.60;;;16.20;53.90;;;;;;4217425;27;20016;-49
2024/04/23 13:51:55;;;;;;;1.92;1.83;;;16.20;54.30;;;;;;4217644;27;20020;-49
2024/04/23 13:54:38;;;;;;;1.77;1.63;;;16.20;54.50;;;;;;4218022;27;20081;-48
2024/04/23 13:57:19;;;;;;;1.38;1.27;;;16.20;54.40;;;;;;4231760;27;20696;-50
2024/04/23 14:00:02;;;;;;;2.08;1.58;;;16.10;53.80;;;;;;4213412;27;20020;-46
2024/04/23 14:02:43;;;;;;;1.40;1.30;;;16.10;53.00;;;;;;4193290;27;20523;-49
2024/04/23 14:05:29;;;;;;;1.40;1.40;;;16.00;52.70;;;;;;4204775;27;20052;-51
2024/04/23 14:08:11;;;;;;;1.98;1.50;;;16.00;52.60;;;;;;4218607;27;20020;-46
2024/04/23 14:10:54;;;;;;;1.67;1.50;;;15.90;52.80;;;;;;4218675;27;20087;-46
2024/04/23 14:13:35;;;;;;;1.73;1.45;;;16.00;52.90;;;;;;4221036;27;20021;-49
2024/04/23 14:16:19;;;;;;;1.23;1.23;;;16.00;52.90;;;;;;4220636;27;20026;-47
2024/04/23 14:18:59;;;;;;;1.17;1.13;;;15.90;53.10;;;;;;4220694;27;20090;-48